Time;durP1;ratioP1;P1;durP2;ratioP2;P2;SDS_P1;SDS_P2;PMS_P1;PMS_P2;Temp;Humidity;BMP_temperature;BMP_pressure;BME280_temperature;BME280_humidity;BME280_pressure;Samples;Min_cycle;Max_cycle;Signal;HPM_P1;HPM_P2
2023/09/26 00:01:06;;;;;;;11.50;5.40;;;;;;;11.11;100.00;102627.75;7391454;19;20846;-39
2023/09/26 00:03:36;;;;;;;8.57;5.20;;;;;;;11.07;100.00;102638.63;7366895;19;20840;-40
2023/09/26 00:06:06;;;;;;;11.10;4.97;;;;;;;11.05;100.00;102645.41;7388246;19;20819;-40
2023/09/26 00:08:35;;;;;;;18.40;8.00;;;;;;;11.05;100.00;102645.41;7366903;19;20515;-38
2023/09/26 00:11:05;;;;;;;7.57;5.13;;;;;;;11.03;100.00;102647.00;7389306;19;20412;-39
2023/09/26 00:13:34;;;;;;;7.63;5.23;;;;;;;11.06;100.00;102647.19;7366355;19;20427;-39
2023/09/26 00:16:07;;;;;;;8.17;5.53;;;;;;;10.99;100.00;102655.28;7390966;19;20474;-39
2023/09/26 00:18:37;;;;;;;8.83;6.10;;;;;;;10.97;100.00;102654.31;7367374;19;20436;-39
2023/09/26 00:21:06;;;;;;;10.40;5.80;;;;;;;10.91;100.00;102657.31;7392639;19;20788;-39
2023/09/26 00:23:36;;;;;;;9.87;6.40;;;;;;;10.93;100.00;102660.94;7365664;19;20446;-39
2023/09/26 00:26:07;;;;;;;12.63;7.00;;;;;;;10.92;100.00;102665.19;7390732;19;20782;-40
2023/09/26 00:28:37;;;;;;;8.37;5.50;;;;;;;10.84;100.00;102662.84;7366450;19;20422;-40
2023/09/26 00:31:09;;;;;;;11.03;5.70;;;;;;;10.84;100.00;102660.28;7391460;19;20482;-40
2023/09/26 00:33:39;;;;;;;9.23;6.20;;;;;;;10.85;100.00;102662.06;7365775;19;20422;-39
2023/09/26 00:36:10;;;;;;;7.63;5.10;;;;;;;10.82;100.00;102662.72;7391989;19;20396;-38
2023/09/26 00:38:40;;;;;;;12.30;6.10;;;;;;;10.77;100.00;102669.28;7366248;19;20430;-39
2023/09/26 00:41:10;;;;;;;11.37;5.40;;;;;;;10.72;100.00;102660.31;7390854;19;20411;-39
2023/09/26 00:43:39;;;;;;;8.77;5.87;;;;;;;10.73;100.00;102662.09;7365978;19;20499;-41
2023/09/26 00:46:13;;;;;;;14.23;6.77;;;;;;;10.67;100.00;102657.41;7390809;19;20407;-40
2023/09/26 00:48:43;;;;;;;10.03;6.30;;;;;;;10.70;100.00;102651.53;7365193;19;20436;-39
2023/09/26 00:51:13;;;;;;;12.10;6.50;;;;;;;10.63;100.00;102640.81;7390927;19;20813;-42
2023/09/26 00:53:43;;;;;;;8.07;5.33;;;;;;;10.56;100.00;102638.53;7366088;19;20486;-40
2023/09/26 00:56:12;;;;;;;9.27;5.90;;;;;;;10.56;100.00;102633.38;7392842;19;20419;-40
2023/09/26 00:58:42;;;;;;;10.87;6.50;;;;;;;10.49;100.00;102616.56;7366457;19;20514;-42
2023/09/26 01:01:15;;;;;;;8.73;5.70;;;;;;;10.45;100.00;102608.50;7389084;19;20399;-40
2023/09/26 01:03:46;;;;;;;8.67;5.80;;;;;;;10.37;100.00;102582.09;7360853;19;20475;-41
2023/09/26 01:06:17;;;;;;;9.50;6.03;;;;;;;10.36;100.00;102568.28;7392792;19;20403;-41
2023/09/26 01:08:46;;;;;;;9.73;6.60;;;;;;;10.30;100.00;102560.13;7367336;19;20431;-39
2023/09/26 01:11:16;;;;;;;10.37;6.50;;;;;;;10.26;100.00;102540.94;7392663;19;20411;-39
2023/09/26 01:13:46;;;;;;;12.57;6.40;;;;;;;10.28;100.00;102525.59;7366561;19;20494;-39
2023/09/26 01:16:20;;;;;;;13.73;7.17;;;;;;;10.33;100.00;102521.66;7392538;19;20404;-40
2023/09/26 01:18:50;;;;;;;10.63;6.87;;;;;;;10.34;100.00;102513.13;7374382;19;20438;-39
2023/09/26 01:21:19;;;;;;;12.33;7.80;;;;;;;10.37;100.00;102512.44;7396306;19;20415;-40
2023/09/26 01:23:57;;;;;;;14.67;8.60;;;;;;;10.32;100.00;102504.38;7374407;19;20467;-41
2023/09/26 01:26:26;;;;;;;15.83;8.60;;;;;;;10.26;100.00;102499.66;7397262;19;20411;-40
2023/09/26 01:28:56;;;;;;;15.57;9.20;;;;;;;10.25;100.00;102490.13;7373835;19;20430;-39
2023/09/26 01:31:26;;;;;;;15.40;9.40;;;;;;;10.27;100.00;102485.09;7401607;19;20410;-39
2023/09/26 01:33:55;;;;;;;14.53;9.07;;;;;;;10.27;100.00;102474.78;7374068;19;20474;-46
2023/09/26 01:36:26;;;;;;;11.70;8.00;;;;;;;10.20;100.00;102469.97;7399680;19;20418;-40
2023/09/26 01:38:58;;;;;;;14.17;8.33;;;;;;;10.13;100.00;102460.91;7374866;19;20450;-39
2023/09/26 01:41:30;;;;;;;14.63;8.37;;;;;;;10.17;100.00;102449.13;7397461;19;20407;-39
2023/09/26 01:44:00;;;;;;;14.03;8.60;;;;;;;10.15;100.00;102443.84;7373109;19;20473;-39
2023/09/26 01:46:29;;;;;;;13.57;7.40;;;;;;;10.12;100.00;102438.47;7399959;19;20994;-40
2023/09/26 01:48:59;;;;;;;12.27;7.80;;;;;;;10.10;100.00;102438.34;7372078;19;20958;-38
2023/09/26 01:51:29;;;;;;;14.33;8.63;;;;;;;10.10;100.00;102428.03;7396796;19;20424;-39
2023/09/26 01:54:01;;;;;;;11.33;7.60;;;;;;;10.11;100.00;102432.41;7372733;19;20462;-40
2023/09/26 01:56:33;;;;;;;12.67;7.87;;;;;;;10.12;100.00;102431.63;7397105;19;20426;-39
2023/09/26 01:59:03;;;;;;;12.60;7.40;;;;;;;10.10;100.00;102427.16;7374510;19;20435;-39
2023/09/26 02:01:32;;;;;;;13.80;8.33;;;;;;;10.09;100.00;102418.53;7396450;19;20411;-39
2023/09/26 02:04:02;;;;;;;10.07;6.63;;;;;;;10.07;100.00;102420.09;7373627;19;21019;-39
2023/09/26 02:06:32;;;;;;;11.90;7.00;;;;;;;10.09;100.00;102420.19;7396618;19;20407;-40
2023/09/26 02:09:04;;;;;;;13.80;8.37;;;;;;;10.04;100.00;102416.41;7373362;19;20431;-40
2023/09/26 02:11:33;;;;;;;12.57;7.70;;;;;;;10.04;100.00;102412.13;7396266;19;21006;-39
2023/09/26 02:14:03;;;;;;;13.50;8.23;;;;;;;10.06;100.00;102407.97;7371814;19;20544;-39
2023/09/26 02:16:33;;;;;;;10.47;6.50;;;;;;;10.07;100.00;102409.78;7396473;19;20411;-40
2023/09/26 02:19:04;;;;;;;12.53;7.90;;;;;;;10.02;100.00;102400.84;7374040;19;20496;-39
2023/09/26 02:21:33;;;;;;;13.10;6.87;;;;;;;10.02;100.00;102400.84;7395924;19;20936;-39
2023/09/26 02:24:06;;;;;;;11.90;7.70;;;;;;;9.97;100.00;102409.91;7373021;19;20466;-40
2023/09/26 02:26:36;;;;;;;12.57;7.20;;;;;;;9.94;100.00;102402.88;7395606;19;21328;-39
2023/09/26 02:29:05;;;;;;;9.77;6.50;;;;;;;9.95;100.00;102388.31;7370933;19;20432;-38
2023/09/26 02:31:35;;;;;;;11.20;6.97;;;;;;;9.95;100.00;102372.81;7396447;19;20489;-39
2023/09/26 02:34:05;;;;;;;11.33;7.77;;;;;;;9.92;100.00;102382.91;7372358;19;20535;-39
2023/09/26 02:36:35;;;;;;;12.77;7.30;;;;;;;9.86;100.00;102384.25;7398000;19;20415;-41
2023/09/26 02:39:07;;;;;;;11.57;7.40;;;;;;;9.81;100.00;102377.00;7373020;19;20438;-39
2023/09/26 02:41:37;;;;;;;9.80;7.10;;;;;;;9.71;100.00;102378.03;7395460;19;20471;-41
2023/09/26 02:44:06;;;;;;;12.30;7.70;;;;;;;9.77;100.00;102375.88;7372307;19;20469;-39
2023/09/26 02:46:36;;;;;;;12.03;7.70;;;;;;;9.75;100.00;102364.59;7395939;19;20407;-39
2023/09/26 02:49:06;;;;;;;11.83;7.40;;;;;;;9.74;100.00;102357.63;7371336;19;20415;-39
2023/09/26 02:51:35;;;;;;;14.77;8.70;;;;;;;9.82;100.00;102356.50;7395794;19;20399;-39
2023/09/26 02:54:08;;;;;;;15.10;9.40;;;;;;;9.77;100.00;102352.69;7371878;19;20542;-39
2023/09/26 02:56:38;;;;;;;11.90;7.97;;;;;;;9.68;100.00;102346.88;7395544;19;20479;-41
2023/09/26 02:59:08;;;;;;;11.53;7.77;;;;;;;9.62;100.00;102342.19;7372633;19;20455;-40
2023/09/26 03:01:38;;;;;;;14.93;8.40;;;;;;;9.63;100.00;102340.53;7395465;19;20772;-41
2023/09/26 03:04:07;;;;;;;15.50;7.70;;;;;;;9.62;100.00;102330.97;7372131;19;21064;-39
2023/09/26 03:06:37;;;;;;;12.70;8.60;;;;;;;9.64;100.00;102329.41;7395214;19;20415;-41
2023/09/26 03:09:09;;;;;;;12.03;7.47;;;;;;;9.63;100.00;102327.63;7372511;19;20419;-39
2023/09/26 03:11:39;;;;;;;144.23;63.97;;;;;;;9.82;100.00;102317.84;7395266;19;20411;-42
2023/09/26 03:14:08;;;;;;;94.57;43.63;;;;;;;9.78;100.00;102313.22;7371380;19;20459;-38
2023/09/26 03:16:38;;;;;;;58.63;28.87;;;;;;;9.75;100.00;102305.31;7395060;19;20415;-38
2023/09/26 03:19:10;;;;;;;47.90;25.23;;;;;;;9.67;100.00;102298.69;7372631;19;20502;-40
2023/09/26 03:21:40;;;;;;;21.20;12.80;;;;;;;9.59;100.00;102295.59;7395371;19;20412;-39
2023/09/26 03:24:12;;;;;;;36.50;18.77;;;;;;;9.79;100.00;102288.38;7371183;19;20486;-40
2023/09/26 03:26:42;;;;;;;38.40;19.60;;;;;;;9.86;100.00;102278.56;7394883;19;20930;-40
2023/09/26 03:29:11;;;;;;;23.30;13.53;;;;;;;9.74;100.00;102269.97;7371053;19;20423;-39
2023/09/26 03:31:42;;;;;;;20.03;11.30;;;;;;;9.70;100.00;102270.56;7395021;19;20427;-39
2023/09/26 03:34:12;;;;;;;27.67;14.47;;;;;;;9.68;100.00;102272.13;7371165;19;20470;-39
2023/09/26 03:36:42;;;;;;;21.20;11.73;;;;;;;9.68;100.00;102264.41;7396102;19;20934;-39
2023/09/26 03:39:14;;;;;;;18.27;11.23;;;;;;;9.64;100.00;102259.84;7371914;19;20530;-40
2023/09/26 03:41:44;;;;;;;15.90;9.20;;;;;;;9.54;100.00;102251.44;7393895;19;20407;-38
2023/09/26 03:44:13;;;;;;;16.50;9.90;;;;;;;9.61;100.00;102250.22;7370602;19;21101;-40
2023/09/26 03:46:43;;;;;;;14.00;9.03;;;;;;;9.58;100.00;102253.47;7396190;19;20769;-39
2023/09/26 03:49:12;;;;;;;15.47;9.00;;;;;;;9.54;100.00;102256.59;7370191;19;20415;-40
2023/09/26 03:51:42;;;;;;;12.53;8.30;;;;;;;9.54;100.00;102255.72;7394079;19;20407;-39
2023/09/26 03:54:14;;;;;;;16.30;8.93;;;;;;;9.59;100.00;102249.22;7370058;19;20535;-39
2023/09/26 03:56:44;;;;;;;12.60;8.00;;;;;;;9.40;100.00;102252.19;7393978;19;20407;-40
2023/09/26 03:59:15;;;;;;;12.80;7.63;;;;;;;9.40;100.00;102267.63;7371663;19;20449;-39
2023/09/26 04:01:47;;;;;;;14.83;8.43;;;;;;;9.36;100.00;102265.59;7393663;19;20407;-39
2023/09/26 04:04:17;;;;;;;13.60;7.30;;;;;;;9.29;100.00;102265.19;7370214;19;20837;-40
2023/09/26 04:06:46;;;;;;;9.63;7.20;;;;;;;9.25;100.00;102259.72;7394147;19;20424;-40
2023/09/26 04:09:18;;;;;;;12.20;8.20;;;;;;;9.15;100.00;102268.47;7371106;19;20449;-40
2023/09/26 04:11:51;;;;;;;14.87;9.80;;;;;;;9.18;100.00;102258.38;7394119;19;20407;-39
2023/09/26 04:14:20;;;;;;;12.23;8.37;;;;;;;9.22;100.00;102247.50;7369450;19;20459;-39
2023/09/26 04:16:51;;;;;;;14.03;8.10;;;;;;;9.23;100.00;102240.69;7395162;19;20830;-39
2023/09/26 04:19:21;;;;;;;13.30;8.10;;;;;;;9.17;100.00;102244.59;7371051;19;20419;-39
2023/09/26 04:21:51;;;;;;;14.07;8.90;;;;;;;9.16;100.00;102242.81;7393680;19;20412;-41
2023/09/26 04:24:23;;;;;;;14.60;8.27;;;;;;;9.08;100.00;102232.75;7369461;19;20459;-38
2023/09/26 04:26:52;;;;;;;10.83;7.57;;;;;;;9.04;100.00;102240.25;7393823;19;20482;-39
2023/09/26 04:29:22;;;;;;;14.40;8.83;;;;;;;8.98;100.00;102236.34;7370527;19;20423;-39
2023/09/26 04:31:52;;;;;;;11.80;7.83;;;;;;;8.97;100.00;102224.28;7392993;19;20419;-40
2023/09/26 04:34:22;;;;;;;13.07;8.20;;;;;;;8.99;100.00;102222.69;7368688;19;21029;-40
2023/09/26 04:36:51;;;;;;;12.30;8.60;;;;;;;8.95;100.00;102221.56;7395039;19;20404;-39
2023/09/26 04:39:23;;;;;;;12.10;8.40;;;;;;;8.89;100.00;102221.13;7370275;19;20459;-39
2023/09/26 04:41:54;;;;;;;12.77;8.57;;;;;;;8.92;100.00;102216.19;7393883;19;20959;-39
2023/09/26 04:44:23;;;;;;;13.27;8.57;;;;;;;8.90;100.00;102217.78;7369045;19;20459;-39
2023/09/26 04:46:53;;;;;;;15.60;8.70;;;;;;;8.91;100.00;102209.25;7393087;19;20415;-40
2023/09/26 04:49:23;;;;;;;11.37;8.10;;;;;;;8.89;100.00;102197.97;7368686;19;20446;-39
2023/09/26 04:51:53;;;;;;;13.53;9.13;;;;;;;8.90;100.00;102186.88;7392847;19;20414;-39
2023/09/26 04:54:25;;;;;;;11.93;8.23;;;;;;;8.89;100.00;102193.72;7375383;19;20463;-39
2023/09/26 04:56:55;;;;;;;13.03;8.50;;;;;;;8.84;100.00;102189.94;7399301;19;20419;-39
2023/09/26 04:59:25;;;;;;;12.40;8.80;;;;;;;8.81;100.00;102193.97;7376961;19;20449;-39
2023/09/26 05:01:54;;;;;;;15.50;9.00;;;;;;;8.78;100.00;102195.50;7398969;19;20411;-39
2023/09/26 05:04:25;;;;;;;16.60;9.47;;;;;;;8.77;100.00;102193.72;7374797;19;21019;-38
2023/09/26 05:06:55;;;;;;;15.47;9.67;;;;;;;8.80;100.00;102197.28;7398749;19;20974;-38
2023/09/26 05:09:27;;;;;;;12.67;9.07;;;;;;;8.84;100.00;102191.59;7376740;19;20773;-39
2023/09/26 05:11:57;;;;;;;15.97;9.27;;;;;;;8.80;100.00;102195.63;7398908;19;20415;-40
2023/09/26 05:14:26;;;;;;;13.67;8.83;;;;;;;8.81;100.00;102193.97;7374625;19;20455;-39
2023/09/26 05:16:56;;;;;;;11.90;8.20;;;;;;;8.83;100.00;102194.97;7398926;19;20400;-39
2023/09/26 05:19:26;;;;;;;19.63;11.90;;;;;;;8.87;100.00;102200.44;7376362;19;20427;-39
2023/09/26 05:21:55;;;;;;;24.03;12.93;;;;;;;8.93;100.00;102191.38;7401036;19;20413;-38
2023/09/26 05:24:27;;;;;;;16.40;9.70;;;;;;;8.88;100.00;102198.75;7374334;19;20486;-39
2023/09/26 05:26:57;;;;;;;22.00;13.50;;;;;;;8.87;100.00;102197.84;7398626;19;20418;-39
2023/09/26 05:29:27;;;;;;;16.77;9.83;;;;;;;8.90;100.00;102197.19;7376159;19;20848;-39
2023/09/26 05:31:56;;;;;;;18.20;10.83;;;;;;;8.91;100.00;102204.13;7398474;19;21277;-39
2023/09/26 05:34:26;;;;;;;15.03;9.37;;;;;;;8.88;100.00;102209.06;7374047;19;20488;-38
2023/09/26 05:36:56;;;;;;;18.60;9.90;;;;;;;8.89;100.00;102206.59;7397933;19;20404;-38
2023/09/26 05:39:28;;;;;;;14.27;9.47;;;;;;;8.90;100.00;102202.31;7375593;19;20474;-40
2023/09/26 05:41:58;;;;;;;15.20;8.50;;;;;;;8.93;100.00;102207.72;7398869;19;20407;-38
2023/09/26 05:44:27;;;;;;;16.03;9.13;;;;;;;8.95;100.00;102212.94;7373930;19;20467;-39
2023/09/26 05:46:57;;;;;;;11.60;8.70;;;;;;;9.00;100.00;102203.88;7400712;19;20503;-41
2023/09/26 05:49:27;;;;;;;13.97;8.93;;;;;;;9.04;100.00;102205.91;7374253;19;20443;-41
2023/09/26 05:51:56;;;;;;;24.73;11.00;;;;;;;9.04;100.00;102208.47;7397453;19;20407;-39
2023/09/26 05:54:31;;;;;;;26.07;10.20;;;;;;;9.07;100.00;102205.22;7373481;19;20463;-39
2023/09/26 05:57:03;;;;;;;18.33;9.80;;;;;;;9.16;100.00;102205.88;7398062;19;20395;-39
2023/09/26 05:59:32;;;;;;;16.67;9.00;;;;;;;9.17;100.00;102208.56;7375114;19;20969;-40
2023/09/26 06:02:02;;;;;;;20.70;10.10;;;;;;;9.24;100.00;102202.16;7397319;19;20475;-39
2023/09/26 06:04:32;;;;;;;17.60;8.97;;;;;;;9.28;100.00;102217.03;7370464;19;20468;-39
2023/09/26 06:07:01;;;;;;;30.00;10.70;;;;;;;9.36;100.00;102217.56;7395412;19;20411;-39
2023/09/26 06:09:34;;;;;;;18.33;9.20;;;;;;;9.45;100.00;102212.19;7375096;19;20419;-39
2023/09/26 06:12:04;;;;;;;12.50;8.63;;;;;;;9.50;100.00;102218.56;7398026;19;20904;-38
2023/09/26 06:14:34;;;;;;;14.97;9.40;;;;;;;9.51;100.00;102215.19;7369796;19;20457;-40
2023/09/26 06:17:04;;;;;;;14.07;8.50;;;;;;;9.55;100.00;102221.44;7397628;19;20935;-39
2023/09/26 06:19:33;;;;;;;13.37;9.23;;;;;;;9.67;100.00;102226.53;7374468;19;20439;-39
2023/09/26 06:22:03;;;;;;;13.37;8.23;;;;;;;9.75;100.00;102227.06;7395383;19;20408;-40
2023/09/26 06:24:35;;;;;;;11.73;7.80;;;;;;;10.20;100.00;102224.94;7371127;19;20458;-39
2023/09/26 06:27:05;;;;;;;22.57;14.00;;;;;;;10.84;100.00;102213.56;7397070;19;20479;-39
2023/09/26 06:29:34;;;;;;;18.00;10.33;;;;;;;10.84;100.00;102221.31;7374523;19;20444;-39
2023/09/26 06:32:04;;;;;;;40.10;22.80;;;;;;;11.07;100.00;102239.19;7398204;19;20404;-39
2023/09/26 06:34:35;;;;;;;50.13;27.33;;;;;;;11.22;100.00;102240.94;7371925;19;20474;-39
2023/09/26 06:37:05;;;;;;;47.40;27.13;;;;;;;11.39;100.00;102265.25;7396927;19;20479;-39
2023/09/26 06:39:37;;;;;;;19.17;12.57;;;;;;;11.45;100.00;102291.47;7374245;19;20419;-38
2023/09/26 06:42:07;;;;;;;29.83;17.20;;;;;;;11.63;100.00;102316.69;7398522;19;21011;-40
2023/09/26 06:44:37;;;;;;;19.40;11.37;;;;;;;11.55;100.00;102341.16;7372835;19;20458;-38
2023/09/26 06:47:06;;;;;;;16.80;10.60;;;;;;;11.73;100.00;102350.09;7396303;19;20407;-40
2023/09/26 06:49:37;;;;;;;15.03;9.30;;;;;;;11.83;100.00;102381.66;7370421;19;20447;-41
2023/09/26 06:52:07;;;;;;;17.23;8.60;;;;;;;11.86;100.00;102405.16;7396503;19;20408;-38
2023/09/26 06:54:39;;;;;;;63.17;37.10;;;;;;;11.83;100.00;102433.41;7372325;19;20510;-39
2023/09/26 06:57:09;;;;;;;28.07;15.47;;;;;;;11.88;100.00;102447.53;7396083;19;20412;-41
2023/09/26 06:59:39;;;;;;;44.37;23.20;;;;;;;12.09;100.00;102462.63;7371730;19;20443;-38
2023/09/26 07:02:08;;;;;;;56.10;30.87;;;;;;;12.11;100.00;102471.41;7396118;19;20418;-39
2023/09/26 07:04:38;;;;;;;14.70;8.73;;;;;;;12.20;100.00;102489.19;7369539;19;20502;-38
2023/09/26 07:07:08;;;;;;;28.03;16.60;;;;;;;12.25;100.00;102511.09;7396124;19;20399;-40
2023/09/26 07:09:40;;;;;;;21.00;11.77;;;;;;;12.52;100.00;102508.44;7373789;19;20435;-39
2023/09/26 07:12:10;;;;;;;15.50;8.20;;;;;;;12.73;100.00;102506.25;7395739;19;20396;-41
2023/09/26 07:14:39;;;;;;;47.27;27.53;;;;;;;12.80;100.00;102508.41;7371162;19;20478;-39
2023/09/26 07:17:10;;;;;;;19.40;11.97;;;;;;;12.91;100.00;102495.19;7395742;19;20418;-39
2023/09/26 07:19:40;;;;;;;23.00;13.33;;;;;;;12.88;100.00;102480.41;7373154;19;21017;-41
2023/09/26 07:22:10;;;;;;;19.60;11.73;;;;;;;12.87;100.00;102481.16;7395625;19;20411;-40
2023/09/26 07:24:42;;;;;;;36.30;17.50;;;;;;;13.01;100.00;102475.91;7368931;19;20459;-40
2023/09/26 07:27:17;;;;;;;14.43;7.60;;;;;;;13.16;100.00;102475.91;7370542;19;20403;-40
2023/09/26 07:29:48;;;;;;;10.00;6.47;;;;;;;13.09;100.00;102449.66;7393514;19;20408;-42
2023/09/26 07:32:18;;;;;;;17.70;9.37;;;;;;;13.33;100.00;102453.59;7372469;19;20407;-40
2023/09/26 07:34:47;;;;;;;15.83;8.07;;;;;;;13.34;100.00;102440.69;7391563;19;20439;-39
2023/09/26 07:37:17;;;;;;;12.10;7.33;;;;;;;13.53;100.00;102430.53;7372786;19;21050;-40
2023/09/26 07:39:51;;;;;;;17.80;7.83;;;;;;;13.55;100.00;102416.84;7394812;19;20413;-41
2023/09/26 07:42:21;;;;;;;10.33;6.00;;;;;;;13.49;100.00;102398.34;7373099;19;20603;-38
2023/09/26 07:44:51;;;;;;;8.33;5.47;;;;;;;13.39;100.00;102396.00;7392528;19;20455;-39
2023/09/26 07:47:20;;;;;;;11.67;5.63;;;;;;;13.28;100.00;102385.03;7370842;19;20431;-38
2023/09/26 07:49:50;;;;;;;8.47;5.10;;;;;;;13.24;100.00;102391.75;7393231;19;20411;-39
2023/09/26 07:52:22;;;;;;;8.73;5.17;;;;;;;13.28;100.00;102406.66;7369191;19;20426;-40
2023/09/26 07:54:55;;;;;;;10.23;5.80;;;;;;;13.34;100.00;102425.16;7393044;19;20466;-37
2023/09/26 07:57:25;;;;;;;6.20;4.67;;;;;;;13.41;100.00;102413.44;7371106;19;20424;-40
2023/09/26 07:59:54;;;;;;;7.50;5.30;;;;;;;13.48;100.00;102412.09;7392656;19;20744;-38
2023/09/26 08:02:24;;;;;;;8.73;4.90;;;;;;;13.51;100.00;102401.91;7372273;19;20410;-39
2023/09/26 08:04:54;;;;;;;10.47;5.20;;;;;;;13.53;100.00;102400.28;7392583;19;20443;-41
2023/09/26 08:07:24;;;;;;;7.93;5.17;;;;;;;13.62;100.00;102395.63;7370128;19;20841;-42
2023/09/26 08:10:00;;;;;;;8.20;5.47;;;;;;;13.67;100.00;102389.78;7392730;19;20971;-38
2023/09/26 08:12:30;;;;;;;9.93;5.27;;;;;;;13.79;100.00;102387.00;7369994;19;20423;-40
2023/09/26 08:15:00;;;;;;;11.83;5.17;;;;;;;13.89;100.00;102371.09;7391984;19;20493;-39
2023/09/26 08:17:29;;;;;;;10.00;5.60;;;;;;;13.94;100.00;102350.63;7368093;19;20784;-42
2023/09/26 08:19:59;;;;;;;9.13;4.43;;;;;;;13.95;100.00;102342.00;7390041;19;20443;-41
2023/09/26 08:22:29;;;;;;;7.37;4.47;;;;;;;13.92;100.00;102342.75;7371100;19;20407;-39
2023/09/26 08:25:01;;;;;;;9.57;5.20;;;;;;;13.96;100.00;102343.78;7387967;19;20803;-41
2023/09/26 08:27:31;;;;;;;8.50;5.47;;;;;;;14.00;100.00;102340.56;7367204;19;20428;-39
2023/09/26 08:30:02;;;;;;;7.23;5.00;;;;;;;14.06;100.00;102314.03;7388215;19;20416;-40
2023/09/26 08:32:31;;;;;;;10.27;5.23;;;;;;;14.10;100.00;102332.44;7368931;19;21397;-42
2023/09/26 08:35:01;;;;;;;11.93;5.23;;;;;;;14.16;100.00;102329.28;7387897;19;20451;-40
2023/09/26 08:37:33;;;;;;;8.93;5.10;;;;;;;14.23;100.00;102333.06;7368223;19;20388;-41
2023/09/26 08:40:06;;;;;;;7.30;4.73;;;;;;;14.23;100.00;102317.50;7390620;19;20404;-41
2023/09/26 08:42:37;;;;;;;9.50;5.00;;;;;;;14.28;100.00;102313.44;7365803;19;20414;-39
2023/09/26 08:45:08;;;;;;;9.00;5.00;;;;;;;14.31;100.00;102300.63;7387093;19;20816;-40
2023/09/26 08:47:42;;;;;;;7.80;5.20;;;;;;;14.38;100.00;102292.34;7364375;19;20406;-40
2023/09/26 08:50:12;;;;;;;8.87;5.00;;;;;;;14.37;100.00;102298.34;7390487;19;20397;-39
2023/09/26 08:52:42;;;;;;;7.93;4.43;;;;;;;14.35;100.00;102280.91;7366544;19;20396;-39
2023/09/26 08:55:15;;;;;;;10.37;5.00;;;;;;;14.36;100.00;102293.94;7388884;19;20451;-41
2023/09/26 08:57:46;;;;;;;10.10;6.23;;;;;;;14.52;100.00;102299.91;7367329;19;20423;-40
2023/09/26 09:00:17;;;;;;;9.60;5.00;;;;;;;14.65;100.00;102278.94;7388901;19;20412;-40
2023/09/26 09:02:48;;;;;;;11.33;6.60;;;;;;;14.76;100.00;102247.44;7365098;19;20403;-39
2023/09/26 09:05:20;;;;;;;7.17;5.03;;;;;;;14.87;100.00;102229.75;7387989;19;20798;-39
2023/09/26 09:07:50;;;;;;;7.40;4.70;;;;;;;14.98;100.00;102216.44;7365833;19;20395;-37
2023/09/26 09:10:22;;;;;;;10.03;4.87;;;;;;;15.01;100.00;102197.50;7375913;19;20927;-37
2023/09/26 09:13:04;;;;;;;9.50;5.17;;;;;;;15.03;100.00;102190.66;7366789;19;20514;-39
2023/09/26 09:15:36;;;;;;;8.37;5.53;;;;;;;15.03;100.00;102195.84;7390318;19;20458;-37
2023/09/26 09:18:06;;;;;;;8.20;5.00;;;;;;;15.09;100.00;102200.47;7366698;19;20773;-37
2023/09/26 09:20:37;;;;;;;8.37;5.13;;;;;;;15.15;100.00;102195.56;7390039;19;20437;-37
2023/09/26 09:23:08;;;;;;;14.23;4.90;;;;;;;15.17;100.00;102178.31;7367196;19;20800;-39
2023/09/26 09:25:41;;;;;;;10.63;5.53;;;;;;;15.22;100.00;102171.59;7389999;19;20451;-36
2023/09/26 09:28:10;;;;;;;7.43;4.53;;;;;;;15.24;100.00;102164.75;7369984;19;20433;-37
2023/09/26 09:30:41;;;;;;;8.67;5.03;;;;;;;15.28;100.00;102157.97;7392073;19;20431;-39
2023/09/26 09:33:11;;;;;;;9.47;4.97;;;;;;;15.35;100.00;102156.56;7367623;19;20415;-39
2023/09/26 09:35:41;;;;;;;9.60;4.83;;;;;;;15.54;100.00;102158.28;7389613;19;20439;-37
2023/09/26 09:38:12;;;;;;;7.90;4.73;;;;;;;15.78;100.00;102148.00;7368373;19;20414;-37
2023/09/26 09:40:46;;;;;;;10.60;5.03;;;;;;;15.99;100.00;102131.53;7395507;19;20962;-37
2023/09/26 09:43:15;;;;;;;9.97;4.60;;;;;;;16.03;100.00;102107.44;7374515;19;20407;-36
2023/09/26 09:45:46;;;;;;;7.70;4.73;;;;;;;16.15;100.00;102064.50;7396322;19;20447;-38
2023/09/26 09:48:16;;;;;;;9.00;4.40;;;;;;;16.22;100.00;102069.13;7373398;19;20960;-36
2023/09/26 09:50:48;;;;;;;7.90;4.50;;;;;;;16.30;100.00;102049.47;7399249;19;20411;-37
2023/09/26 09:53:22;;;;;;;7.90;4.40;;;;;;;16.43;100.00;102035.22;7374517;19;20418;-36
2023/09/26 09:55:54;;;;;;;9.23;4.60;;;;;;;16.58;100.00;102029.69;7396232;19;20450;-38
2023/09/26 09:58:29;;;;;;;7.80;4.30;;;;;;;16.82;100.00;101989.69;7373058;19;20507;-37
2023/09/26 10:00:59;;;;;;;7.33;4.07;;;;;;;17.06;100.00;101944.50;7397072;19;20427;-37
2023/09/26 10:03:30;;;;;;;10.30;4.50;;;;;;;17.17;100.00;101930.94;7372705;19;20423;-37
2023/09/26 10:06:02;;;;;;;8.50;4.50;;;;;;;17.28;100.00;101838.31;7396921;19;20411;-37
2023/09/26 10:08:32;;;;;;;6.03;3.73;;;;;;;17.49;100.00;101813.72;7374287;19;20506;-36
2023/09/26 10:11:05;;;;;;;6.30;3.80;;;;;;;17.59;100.00;101805.31;7396319;19;20483;-37
2023/09/26 10:13:37;;;;;;;13.13;7.53;;;;;;;17.61;100.00;101788.00;7371515;19;20898;-38
2023/09/26 10:16:11;;;;;;;8.60;3.40;;;;;;;17.54;100.00;101780.81;7399580;19;20426;-37
2023/09/26 10:18:45;;;;;;;7.00;3.80;;;;;;;17.54;100.00;101778.22;7372689;19;20443;-37
2023/09/26 10:21:26;;;;;;;7.27;3.90;;;;;;;17.54;100.00;101793.88;7397110;19;20403;-37
2023/09/26 10:24:29;;;;;;;6.97;4.50;;;;;;;17.68;100.00;101784.72;7370205;19;20475;-37
2023/09/26 10:27:09;;;;;;;10.33;4.10;;;;;;;17.68;100.00;101779.50;7396094;19;20776;-37
2023/09/26 10:29:57;;;;;;;8.00;3.83;;;;;;;17.88;100.00;101779.16;7375597;19;20537;-37
2023/09/26 10:32:34;;;;;;;9.43;4.50;;;;;;;18.17;100.00;101762.56;7372883;19;20474;-37
2023/09/26 10:35:25;;;;;;;11.07;4.03;;;;;;;18.32;100.00;101735.94;7394405;19;21241;-37
2023/09/26 10:38:18;;;;;;;43.90;22.63;;;;;;;18.62;100.00;101724.50;7374647;19;20398;-37
2023/09/26 10:40:49;;;;;;;9.93;4.33;;;;;;;18.91;100.00;101724.25;7395492;19;20418;-39
2023/09/26 10:43:21;;;;;;;9.53;3.70;;;;;;;18.95;100.00;101715.66;7372532;19;20410;-37
2023/09/26 10:45:54;;;;;;;6.33;4.30;;;;;;;18.92;100.00;101723.41;7394294;19;20514;-37
2023/09/26 10:48:23;;;;;;;7.27;3.80;;;;;;;18.86;100.00;101729.38;7372708;19;20848;-38
2023/09/26 10:50:54;;;;;;;7.23;4.00;;;;;;;19.09;100.00;101730.78;7393020;19;20403;-39
2023/09/26 10:53:24;;;;;;;8.87;4.10;;;;;;;19.18;100.00;101732.72;7371618;19;20419;-38
2023/09/26 10:55:53;;;;;;;7.83;3.87;;;;;;;19.17;100.00;101723.97;7394638;19;20439;-39
2023/09/26 10:58:26;;;;;;;6.40;3.07;;;;;;;19.07;100.00;101733.34;7372912;19;20414;-39
2023/09/26 11:00:57;;;;;;;7.60;3.60;;;;;;;19.18;100.00;101746.69;7394916;19;20404;-40
2023/09/26 11:03:28;;;;;;;9.03;3.57;;;;;;;19.40;100.00;101739.28;7371574;19;20426;-39
2023/09/26 11:05:58;;;;;;;6.97;4.17;;;;;;;19.37;100.00;101741.81;7395241;19;20455;-38
2023/09/26 11:08:28;;;;;;;6.67;3.33;;;;;;;19.28;100.00;101747.78;7370917;19;20419;-42
2023/09/26 11:10:59;;;;;;;6.10;3.20;;;;;;;19.24;100.00;101743.31;7395820;19;20404;-37
2023/09/26 11:13:31;;;;;;;7.60;3.30;;;;;;;19.36;100.00;101755.75;7371298;19;20418;-37
2023/09/26 11:16:01;;;;;;;6.93;4.20;;;;;;;19.11;100.00;101750.00;7394464;19;20392;-37
2023/09/26 11:18:30;;;;;;;8.83;4.20;;;;;;;18.93;100.00;101750.44;7371835;19;20439;-38
2023/09/26 11:21:01;;;;;;;9.47;6.30;;;;;;;18.98;100.00;101757.53;7394488;19;20794;-38
2023/09/26 11:23:38;;;;;;;5.40;3.53;;;;;;;18.87;100.00;101766.88;7370227;19;20419;-39
2023/09/26 11:26:09;;;;;;;11.07;4.20;;;;;;;18.73;100.00;101762.19;7395039;19;20482;-38
2023/09/26 11:28:41;;;;;;;8.87;5.23;;;;;;;18.73;100.00;101759.56;7370405;19;20420;-37
2023/09/26 11:31:11;;;;;;;6.63;4.13;;;;;;;18.88;100.00;101758.19;7395296;19;20491;-39